1892 Hurricane NOT_NAMED (1892227N16308)


IBTrACS version v04r00. Visit IBTrACS website for data access.
Please direct all questions to the IBTrACS Q and A forum

Storm track - Intensity - Wind Radii - Intensity Data - Source Data - All data

Summary Information

Storm ID 1892227N16308
Start Aug 14 00Z
Max Intensity 105 kt (Aug 20 00Z), 950 mb (Aug 20 00Z)
End Aug 24 18Z
ATCF IDs ,AL021892
Track status Best track data.

Storm track plot

Map of storm track

Intensity plots

Map of storm track

Radial wind information

No radial wind information for this storm


Position and Intensity Table

BASIN ISO_TIME_________ NATURE LAT LON WMO WIND USA WIND MLC WIND MLC PRES
degrees north degrees east kts kts kts mb
NA 1892-08-14 00:00:00 TS 16.00 -52.00 35
NA 03:00:00 TS 16.21 -52.45 37
NA 06:00:00 TS 16.40 -52.90 40
NA 09:00:00 TS 16.56 -53.35 45
NA 12:00:00 TS 16.70 -53.80 50
NA 15:00:00 TS 16.85 -54.25 55
NA 18:00:00 TS 17.00 -54.70 60
NA 21:00:00 TS 17.15 -55.15 60
NA 1892-08-15 00:00:00 TS 17.53 -55.23 35 35 60
NA 03:00:00 TS 17.73 -55.53 35 62
NA 06:00:00 TS 17.84 -55.90 35 35 65
NA 09:00:00 TS 17.91 -56.32 35 67
NA 12:00:00 TS 17.97 -56.80 35 35 70
NA 15:00:00 TS 18.04 -57.27 35 70
NA 18:00:00 TS 18.13 -57.73 35 35 70
NA 21:00:00 TS 18.20 -58.21 35 70
NA 1892-08-16 00:00:00 TS 18.30 -58.70 35 35 70
NA 03:00:00 TS 18.46 -59.19 35 70
NA 06:00:00 TS 18.67 -59.67 35 35 70 989
NA 09:00:00 TS 18.89 -60.14 37 70
NA 12:00:00 TS 19.13 -60.60 40 40 70
NA 15:00:00 TS 19.38 -61.04 40 70
NA 18:00:00 TS 19.63 -61.47 40 40 70
NA 21:00:00 TS 19.87 -61.89 42 72
NA 1892-08-17 00:00:00 TS 20.10 -62.30 45 45 75
NA 03:00:00 TS 20.34 -62.71 45 77
NA 06:00:00 TS 20.60 -63.10 45 45 80
NA 09:00:00 TS 20.87 -63.50 47 80
NA 12:00:00 TS 21.13 -63.87 50 50 80
NA 15:00:00 TS 21.38 -64.15 50 82
NA 18:00:00 TS 21.60 -64.40 50 50 85
NA 21:00:00 TS 21.80 -64.68 52 85
NA 1892-08-18 00:00:00 TS 22.00 -64.97 55 55 85
NA 03:00:00 TS 22.22 -65.27 55 87
NA 06:00:00 TS 22.47 -65.57 55 55 90
NA 09:00:00 TS 22.75 -65.82 57 92
NA 12:00:00 TS 23.10 -66.07 60 60 95
NA 15:00:00 TS 23.56 -66.38 60 97
NA 18:00:00 TS 24.03 -66.67 60 60 100
NA 21:00:00 TS 24.41 -66.84 62 100
NA 1892-08-19 00:00:00 TS 24.77 -66.97 65 65 100
NA 03:00:00 TS 25.15 -67.13 65 100
NA 06:00:00 TS 25.57 -67.30 65 65 100
NA 09:00:00 TS 26.02 -67.45 65 100
NA 12:00:00 TS 26.57 -67.60 65 65 100
NA 15:00:00 TS 27.24 -67.76 65 100
NA 18:00:00 TS 28.03 -67.90 65 65 100 965
NA 21:00:00 TS 28.89 -68.01 65 102 957
NA 1892-08-20 00:00:00 TS 29.80 -68.07 65 65 105 950
NA 03:00:00 TS 30.74 -68.11 65 105
NA 06:00:00 TS 31.67 -68.07 65 65 105
NA 09:00:00 TS 32.52 -67.89 65 102
NA 12:00:00 TS 33.33 -67.60 65 65 100
NA 15:00:00 TS 34.15 -67.28 65 97
NA 18:00:00 TS 34.93 -66.87 65 65 95
NA 21:00:00 TS 35.62 -66.40 65 92
NA 1892-08-21 00:00:00 TS 36.33 -65.83 65 65 90
NA 03:00:00 TS 37.18 -65.20 65 90
NA 06:00:00 TS 38.07 -64.47 65 65 90 975
NA 09:00:00 TS 38.93 -63.61 65 90
NA 12:00:00 TS 39.77 -62.77 65 65 90
NA 15:00:00 TS 40.57 -62.09 65 90
NA 18:00:00 TS 41.37 -61.43 65 65 90
NA 21:00:00 TS 42.23 -60.68 62 90
NA 1892-08-22 00:00:00 MX 43.07 -59.87 60 60 90
NA 03:00:00 MX 43.80 -59.02 57 90
NA 06:00:00 MX 44.50 -58.10 55 55 90
NA 09:00:00 MX 45.19 -57.15 52 90
NA 12:00:00 MX 46.00 -55.97 50 50 90 962
NA 15:00:00 MX 46.91 -54.44 50 85
NA 18:00:00 MX 48.13 -52.50 50 50 80
NA 21:00:00 MX 49.77 -50.00 50 75
NA 1892-08-23 00:00:00 MX 51.60 -47.27 50 50 70
NA 03:00:00 MX 53.49 -44.66 50 62
NA 06:00:00 ET 55.13 -42.33 50 50 55 971
NA 09:00:00 ET 56.22 -40.58 50 52
NA 12:00:00 ET 57.00 -39.33 50 50 50
NA 15:00:00 ET 57.75 -38.29 50 50
NA 18:00:00 ET 58.40 -37.37 50 50 50
NA 21:00:00 ET 59.01 -36.23 47 47
NA 1892-08-24 00:00:00 ET 59.50 -35.00 45 45 45
NA 03:00:00 ET 59.85 -33.67 45 45
NA 06:00:00 ET 60.10 -32.40 45 45 45
NA 09:00:00 ET 60.37 -31.32 42 42
NA 12:00:00 ET 60.60 -30.33 40 40 40
NA 15:00:00 ET 60.77 -29.33 40 40
NA 18:00:00 ET 60.90 -28.30 40 40 40

Source Information

Agency Information
USA hurdat2-1851-2019-042820.txt:Line=7127:UNNAMED
TOKYO
CMA
HKO
NEWDELHI
REUNION
BOM
NADI
WELLINGTON
DS824
TD9636
TD9635
NEUMANN
MLC

All available IBTrACS Data

SEASON BASIN SUBBASIN ISO_TIME_________ NATURE LAT LON WMO WIND WMO AGENCY DIST2LAND LANDFALL IFLAG USA AGENCY USA ATCF_ID USA LAT USA LON USA STATUS USA WIND USA SSHS MLC LAT MLC LON MLC CLASS MLC WIND MLC PRES STORM SPEED STORM DIR
Year degrees north degrees east kts km km degrees north degrees east kts 1 degrees north degrees east kts mb kts degrees
1892 NA NA 1892-08-14 00:00:00 TS 16.00 -52.00 1140 1115 _____________O -1 16.00 -52.00 TS 35 10 296
1892 NA NA 03:00:00 TS 16.21 -52.45 1115 1083 _____________P -1 16.21 -52.45 TS 37 10 295
1892 NA NA 06:00:00 TS 16.40 -52.90 1083 1055 _____________O -1 16.40 -52.90 TS 40 9 292
1892 NA NA 09:00:00 TS 16.56 -53.35 1053 1027 _____________P -1 16.56 -53.35 TS 45 9 289
1892 NA NA 12:00:00 TS 16.70 -53.80 1027 1002 _____________O -1 16.70 -53.80 TS 50 9 289
1892 NA NA 15:00:00 TS 16.85 -54.25 995 979 _____________P -1 16.85 -54.25 TS 55 9 289
1892 NA NA 18:00:00 TS 17.00 -54.70 979 958 _____________O -1 17.00 -54.70 TS 60 9 289
1892 NA NA 21:00:00 TS 17.15 -55.15 951 951 _____________P -1 17.15 -55.15 TS 60 7 316
1892 NA NA 1892-08-15 00:00:00 TS 17.53 -55.23 35 hurdat_atl 985 982 O____________O hurdat_atl AL021892 18.00 -54.50 TS 35 0 17.30 -55.60 TS 60 7 328
1892 NA NA 03:00:00 TS 17.73 -55.53 982 966 P____________P AL021892 18.00 -55.00 TS 35 0 17.45 -56.05 TS 62 7 296
1892 NA NA 06:00:00 TS 17.84 -55.90 35 hurdat_atl 966 951 O____________O hurdat_atl AL021892 18.00 -55.50 TS 35 0 17.60 -56.50 HU 65 8 284
1892 NA NA 09:00:00 TS 17.91 -56.32 951 930 P____________P AL021892 17.99 -56.00 TS 35 0 17.75 -56.96 HU 67 9 278
1892 NA NA 12:00:00 TS 17.97 -56.80 35 hurdat_atl 930 888 O____________O hurdat_atl AL021892 18.00 -56.50 TS 35 0 17.90 -57.40 HU 70 9 278
1892 NA NA 15:00:00 TS 18.04 -57.27 877 834 P____________P AL021892 18.04 -57.00 TS 35 0 18.05 -57.80 HU 70 9 281
1892 NA NA 18:00:00 TS 18.13 -57.73 35 hurdat_atl 834 781 O____________O hurdat_atl AL021892 18.10 -57.50 TS 35 0 18.20 -58.20 HU 70 9 280
1892 NA NA 21:00:00 TS 18.20 -58.21 781 728 P____________P AL021892 18.13 -58.00 TS 35 0 18.33 -58.64 HU 70 9 280
1892 NA NA 1892-08-16 00:00:00 TS 18.30 -58.70 35 hurdat_atl 728 675 O____________O hurdat_atl AL021892 18.20 -58.50 TS 35 0 18.50 -59.10 HU 70 10 286
1892 NA NA 03:00:00 TS 18.46 -59.19 675 633 P____________P AL021892 18.33 -59.00 TS 35 0 18.73 -59.56 HU 70 10 292
1892 NA NA 06:00:00 TS 18.67 -59.67 35 hurdat_atl 622 582 O____________O hurdat_atl AL021892 18.50 -59.50 TS 35 0 19.00 -60.00 HU 70 989 10 295
1892 NA NA 09:00:00 TS 18.89 -60.14 582 532 P____________P AL021892 18.69 -60.01 TS 37 0 19.28 -60.41 HU 70 10 298
1892 NA NA 12:00:00 TS 19.13 -60.60 40 hurdat_atl 532 494 O____________O hurdat_atl AL021892 18.90 -60.50 TS 40 0 19.60 -60.80 HU 70 10 300
1892 NA NA 15:00:00 TS 19.38 -61.04 496 461 P____________P AL021892 19.10 -60.97 TS 40 0 19.95 -61.19 HU 70 10 301
1892 NA NA 18:00:00 TS 19.63 -61.47 40 hurdat_atl 451 423 O____________O hurdat_atl AL021892 19.30 -61.40 TS 40 0 20.30 -61.60 HU 70 9 301
1892 NA NA 21:00:00 TS 19.87 -61.89 423 395 P____________P AL021892 19.50 -61.81 TS 42 0 20.60 -62.05 HU 72 9 301
1892 NA NA 1892-08-17 00:00:00 TS 20.10 -62.30 45 hurdat_atl 395 371 O____________O hurdat_atl AL021892 19.70 -62.20 TS 45 0 20.90 -62.50 HU 75 9 302
1892 NA NA 03:00:00 TS 20.34 -62.71 371 359 P____________P AL021892 19.89 -62.61 TS 45 0 21.25 -62.90 HU 77 9 304
1892 NA NA 06:00:00 TS 20.60 -63.10 45 hurdat_atl 359 347 O____________O hurdat_atl AL021892 20.10 -63.00 TS 45 0 21.60 -63.30 HU 80 9 305
1892 NA NA 09:00:00 TS 20.87 -63.50 355 346 P____________P AL021892 20.34 -63.37 TS 47 0 21.92 -63.78 HU 80 9 307
1892 NA NA 12:00:00 TS 21.13 -63.87 50 hurdat_atl 350 350 O____________O hurdat_atl AL021892 20.60 -63.70 TS 50 0 22.20 -64.20 HU 80 8 310
1892 NA NA 15:00:00 TS 21.38 -64.15 370 366 P____________P AL021892 20.86 -64.00 TS 50 0 22.41 -64.45 HU 82 7 313
1892 NA NA 18:00:00 TS 21.60 -64.40 50 hurdat_atl 379 375 O____________O hurdat_atl AL021892 21.10 -64.30 TS 50 0 22.60 -64.60 HU 85 7 311
1892 NA NA 21:00:00 TS 21.80 -64.68 391 391 P____________P AL021892 21.30 -64.64 TS 52 0 22.80 -64.75 HU 85 7 307
1892 NA NA 1892-08-18 00:00:00 TS 22.00 -64.97 55 hurdat_atl 407 407 O____________O hurdat_atl AL021892 21.50 -65.00 TS 55 0 23.00 -64.90 HU 85 7 307
1892 NA NA 03:00:00 TS 22.22 -65.27 426 426 P____________P AL021892 21.72 -65.36 TS 55 0 23.21 -65.10 HU 87 7 310
1892 NA NA 06:00:00 TS 22.47 -65.57 55 hurdat_atl 458 458 O____________O hurdat_atl AL021892 22.00 -65.70 TS 55 0 23.40 -65.30 HU 90 7 317
1892 NA NA 09:00:00 TS 22.75 -65.82 480 480 P____________P AL021892 22.35 -66.00 TS 57 0 23.55 -65.45 HU 92 8 324
1892 NA NA 12:00:00 TS 23.10 -66.07 60 hurdat_atl 525 525 O____________O hurdat_atl AL021892 22.80 -66.30 TS 60 0 23.70 -65.60 HU 95 10 327
1892 NA NA 15:00:00 TS 23.56 -66.38 566 566 P____________P AL021892 23.39 -66.67 TS 60 0 23.89 -65.80 HU 97 11 330
1892 NA NA 18:00:00 TS 24.03 -66.67 60 hurdat_atl 590 590 O____________O hurdat_atl AL021892 24.00 -67.00 TS 60 0 24.10 -66.00 MH 100 10 334
1892 NA NA 21:00:00 TS 24.41 -66.84 625 621 P____________P AL021892 24.46 -67.17 TS 62 0 24.30 -66.17 MH 100 8 339
1892 NA NA 1892-08-19 00:00:00 TS 24.77 -66.97 65 hurdat_atl 658 658 O____________O hurdat_atl AL021892 24.90 -67.30 HU 65 1 24.50 -66.30 MH 100 8 340
1892 NA NA 03:00:00 TS 25.15 -67.13 683 683 P____________P AL021892 25.39 -67.50 HU 65 1 24.67 -66.40 MH 100 9 339
1892 NA NA 06:00:00 TS 25.57 -67.30 65 hurdat_atl 725 725 O____________O hurdat_atl AL021892 25.90 -67.70 HU 65 1 24.90 -66.50 MH 100 9 342
1892 NA NA 09:00:00 TS 26.02 -67.45 759 759 P____________P AL021892 26.42 -67.85 HU 65 1 25.21 -66.66 MH 100 10 345
1892 NA NA 12:00:00 TS 26.57 -67.60 65 hurdat_atl 815 815 O____________O hurdat_atl AL021892 27.00 -68.00 HU 65 1 25.70 -66.80 MH 100 13 347
1892 NA NA 15:00:00 TS 27.24 -67.76 852 852 P____________P AL021892 27.66 -68.21 HU 65 1 26.40 -66.87 MH 100 15 350
1892 NA NA 18:00:00 TS 28.03 -67.90 65 hurdat_atl 917 917 O____________O hurdat_atl AL021892 28.40 -68.40 HU 65 1 27.30 -66.90 MH 100 965 17 352
1892 NA NA 21:00:00 TS 28.89 -68.01 996 962 P____________P AL021892 29.17 -68.53 HU 65 1 28.32 -66.96 MH 102 957 18 355
1892 NA NA 1892-08-20 00:00:00 TS 29.80 -68.07 65 hurdat_atl 955 891 O____________O hurdat_atl AL021892 30.00 -68.60 HU 65 1 29.40 -67.00 MH 105 950 19 357
1892 NA NA 03:00:00 TS 30.74 -68.11 891 827 P____________P AL021892 30.89 -68.66 HU 65 1 30.44 -67.02 MH 105 19 0
1892 NA NA 06:00:00 TS 31.67 -68.07 65 hurdat_atl 821 788 O____________O hurdat_atl AL021892 31.80 -68.60 HU 65 1 31.40 -67.00 MH 105 18 6
1892 NA NA 09:00:00 TS 32.52 -67.89 788 769 P____________P AL021892 32.66 -68.36 HU 65 1 32.23 -66.94 MH 102 17 13
1892 NA NA 12:00:00 TS 33.33 -67.60 65 hurdat_atl 773 763 O____________O hurdat_atl AL021892 33.50 -68.00 HU 65 1 33.00 -66.80 MH 100 17 17
1892 NA NA 15:00:00 TS 34.15 -67.28 766 766 P____________P AL021892 34.33 -67.63 HU 65 1 33.80 -66.57 MH 97 17 21
1892 NA NA 18:00:00 TS 34.93 -66.87 65 hurdat_atl 784 747 O____________O hurdat_atl AL021892 35.10 -67.20 HU 65 1 34.60 -66.20 HU 95 16 26
1892 NA NA 21:00:00 TS 35.62 -66.40 747 697 P____________P AL021892 35.73 -66.75 HU 65 1 35.40 -65.69 HU 92 16 31
1892 NA NA 1892-08-21 00:00:00 TS 36.33 -65.83 65 hurdat_atl 701 651 O____________O hurdat_atl AL021892 36.40 -66.20 HU 65 1 36.20 -65.10 HU 90 18 32
1892 NA NA 03:00:00 TS 37.18 -65.20 647 614 P____________P AL021892 37.26 -65.50 HU 65 1 37.01 -64.59 HU 90 20 32
1892 NA NA 06:00:00 TS 38.07 -64.47 65 hurdat_atl 604 528 O____________O hurdat_atl AL021892 38.20 -64.70 HU 65 1 37.80 -64.00 HU 90 975 22 35
1892 NA NA 09:00:00 TS 38.93 -63.61 531 467 P____________P AL021892 39.11 -63.84 HU 65 1 38.57 -63.16 HU 90 22 38
1892 NA NA 12:00:00 TS 39.77 -62.77 65 hurdat_atl 460 420 O____________O hurdat_atl AL021892 40.00 -63.00 HU 65 1 39.30 -62.30 HU 90 20 36
1892 NA NA 15:00:00 TS 40.57 -62.09 416 384 P____________P AL021892 40.85 -62.30 HU 65 1 40.00 -61.65 HU 90 19 32
1892 NA NA 18:00:00 TS 41.37 -61.43 65 hurdat_atl 378 323 O____________O hurdat_atl AL021892 41.70 -61.60 HU 65 1 40.70 -61.10 HU 90 20 32
1892 NA NA 21:00:00 TS 42.23 -60.68 323 259 P____________P AL021892 42.60 -60.74 HU 62 0 41.49 -60.56 HU 90 21 34
1892 NA NA 1892-08-22 00:00:00 MX 43.07 -59.87 60 hurdat_atl 252 221 O____________O hurdat_atl AL021892 43.50 -59.80 EX 60 -4 42.20 -60.00 HU 90 20 38
1892 NA NA 03:00:00 MX 43.80 -59.02 227 207 P____________P AL021892 44.35 -58.85 EX 57 -4 42.69 -59.36 HU 90 19 42
1892 NA NA 06:00:00 MX 44.50 -58.10 55 hurdat_atl 212 210 O____________O hurdat_atl AL021892 45.20 -57.80 EX 55 -4 43.10 -58.70 HU 90 19 44
1892 NA NA 09:00:00 MX 45.19 -57.15 211 91 P____________P AL021892 46.06 -56.62 EX 52 -4 43.46 -58.22 HU 90 21 45
1892 NA NA 12:00:00 MX 46.00 -55.97 50 hurdat_atl 91 25 O____________O hurdat_atl AL021892 47.00 -55.20 EX 50 -4 44.00 -57.50 HU 90 962 25 48
1892 NA NA 15:00:00 MX 46.91 -54.44 18 0 P____________P AL021892 48.03 -53.48 EX 50 -4 44.68 -56.36 HU 85 32 48
1892 NA NA 18:00:00 MX 48.13 -52.50 50 hurdat_atl 22 22 O____________O hurdat_atl AL021892 49.20 -51.50 EX 50 -4 46.00 -54.50 HU 80 41 46
1892 NA NA 21:00:00 MX 49.77 -50.00 257 257 P____________P AL021892 50.51 -49.24 EX 50 -4 48.28 -51.52 HU 75 48 44
1892 NA NA 1892-08-23 00:00:00 MX 51.60 -47.27 50 hurdat_atl 505 505 O____________O hurdat_atl AL021892 51.90 -47.00 EX 50 -4 51.00 -47.80 HU 70 50 42
1892 NA NA 03:00:00 MX 53.49 -44.66 719 555 P____________P AL021892 53.33 -45.09 EX 50 -4 53.81 -43.78 HU 62 46 40
1892 NA NA 06:00:00 ET 55.13 -42.33 50 hurdat_atl 555 453 O____________O hurdat_atl AL021892 54.70 -43.50 EX 50 -4 56.00 -40.00 EX 55 971 36 41
1892 NA NA 09:00:00 ET 56.22 -40.58 455 403 P____________P AL021892 55.95 -42.11 EX 50 -4 56.75 -37.51 EX 52 25 42
1892 NA NA 12:00:00 ET 57.00 -39.33 50 hurdat_atl 407 377 O____________O hurdat_atl AL021892 57.00 -41.00 EX 50 -4 57.00 -36.00 EX 50 20 39
1892 NA NA 15:00:00 ET 57.75 -38.29 373 368 P____________P AL021892 57.79 -40.12 EX 50 -4 57.69 -34.63 EX 50 17 37
1892 NA NA 18:00:00 ET 58.40 -37.37 50 hurdat_atl 372 371 O____________O hurdat_atl AL021892 58.40 -39.30 EX 50 -4 58.40 -33.50 EX 50 16 41
1892 NA NA 21:00:00 ET 59.01 -36.23 404 404 P____________P AL021892 59.01 -38.28 EX 47 -4 59.01 -32.14 EX 47 16 48
1892 NA NA 1892-08-24 00:00:00 ET 59.50 -35.00 45 hurdat_atl 449 449 O____________O hurdat_atl AL021892 59.50 -37.00 EX 45 -4 59.50 -31.00 EX 45 15 57
1892 NA NA 03:00:00 ET 59.85 -33.67 503 503 P____________P AL021892 59.85 -35.32 EX 45 -4 59.84 -30.38 EX 45 14 65
1892 NA NA 06:00:00 ET 60.10 -32.40 45 hurdat_atl 554 554 O____________O hurdat_atl AL021892 60.10 -33.60 EX 45 -4 60.10 -30.00 EX 45 13 66
1892 NA NA 09:00:00 ET 60.37 -31.32 581 530 P____________P AL021892 60.37 -32.24 EX 42 -4 60.37 -29.48 EX 42 11 64
1892 NA NA 12:00:00 ET 60.60 -30.33 40 hurdat_atl 527 477 O____________O hurdat_atl AL021892 60.60 -31.00 EX 40 -4 60.60 -29.00 EX 40 11 68
1892 NA NA 15:00:00 ET 60.77 -29.33 473 433 P____________P AL021892 60.77 -29.68 EX 40 -4 60.77 -28.62 EX 40 10 73
1892 NA NA 18:00:00 ET 60.90 -28.30 40 hurdat_atl 430 O____________O hurdat_atl AL021892 60.90 -28.30 EX 40 -4 60.90 -28.30 EX 40 10 75